createdAt,value
2022-08-22T00:00:15.010Z,17.51
2022-08-22T00:02:54.491Z,18.11
2022-08-22T00:03:11.846Z,17.58
2022-08-22T00:03:15.814Z,17.51
2022-08-22T00:05:58.607Z,17.48
2022-08-22T00:08:29.944Z,17.48
2022-08-22T00:11:34.857Z,17.47
2022-08-22T00:14:20.072Z,17.50
2022-08-22T00:16:57.816Z,17.51
2022-08-22T00:19:31.435Z,17.53
2022-08-22T00:22:47.700Z,17.53
2022-08-22T00:25:31.647Z,17.49
2022-08-22T00:28:06.320Z,17.50
2022-08-22T00:30:42.737Z,17.48
2022-08-22T00:33:21.929Z,17.46
2022-08-22T00:35:53.779Z,17.45
2022-08-22T00:38:28.041Z,17.44
2022-08-22T00:41:33.953Z,17.41
2022-08-22T00:44:23.678Z,17.38
2022-08-22T00:47:20.036Z,17.34
2022-08-22T00:49:59.621Z,17.32
2022-08-22T00:52:40.373Z,17.29
2022-08-22T00:55:20.536Z,17.27
2022-08-22T00:57:56.363Z,17.28
2022-08-22T01:00:25.934Z,17.29
2022-08-22T01:03:17.398Z,17.29
2022-08-22T01:05:50.128Z,17.29
2022-08-22T01:08:24.826Z,17.30
2022-08-22T01:11:29.170Z,17.28
2022-08-22T01:14:34.914Z,17.25
2022-08-22T01:17:20.524Z,17.23
2022-08-22T01:19:49.667Z,17.16
2022-08-22T01:22:38.747Z,17.16
2022-08-22T01:25:25.914Z,17.14
2022-08-22T01:28:11.396Z,17.14
2022-08-22T01:30:56.315Z,17.10
2022-08-22T01:34:05.765Z,17.08
2022-08-22T01:37:06.700Z,17.09
2022-08-22T01:40:05.209Z,17.11
2022-08-22T01:42:49.260Z,17.11
2022-08-22T01:45:24.819Z,17.14
2022-08-22T01:48:01.791Z,17.15
2022-08-22T01:50:35.548Z,17.15
2022-08-22T01:53:19.722Z,17.14
2022-08-22T01:56:19.567Z,17.10
2022-08-22T01:59:01.668Z,17.05
2022-08-22T02:01:49.628Z,17.05
2022-08-22T02:04:20.625Z,17.01
2022-08-22T02:07:06.678Z,17.01
2022-08-22T02:09:46.599Z,17.03
2022-08-22T02:12:32.642Z,17.01
2022-08-22T02:15:14.294Z,17.01
2022-08-22T02:17:55.930Z,17.00
2022-08-22T02:20:40.760Z,16.99
2022-08-22T02:23:37.115Z,16.99
2022-08-22T02:26:17.695Z,16.98
2022-08-22T02:29:01.344Z,17.00
2022-08-22T02:31:42.630Z,16.98
2022-08-22T02:34:28.493Z,16.97
2022-08-22T02:37:11.295Z,16.98
2022-08-22T02:39:52.990Z,16.99
2022-08-22T02:42:28.467Z,16.96
2022-08-22T02:45:12.157Z,16.95
2022-08-22T02:47:46.414Z,16.94
2022-08-22T02:50:23.690Z,16.93
2022-08-22T02:52:54.284Z,16.91
2022-08-22T02:55:39.484Z,16.86
2022-08-22T02:58:36.432Z,16.82
2022-08-22T03:01:02.828Z,16.83
2022-08-22T03:03:36.310Z,16.86
2022-08-22T03:06:27.412Z,16.87
2022-08-22T03:09:15.494Z,16.89
2022-08-22T03:12:21.543Z,16.92
2022-08-22T03:15:00.192Z,16.91
2022-08-22T03:17:52.550Z,16.89
2022-08-22T03:20:42.271Z,16.88
2022-08-22T03:23:28.155Z,16.87
2022-08-22T03:26:09.897Z,16.83
2022-08-22T03:28:59.585Z,16.82
2022-08-22T03:31:28.777Z,16.83
2022-08-22T03:34:25.146Z,16.83
2022-08-22T03:37:10.224Z,16.83
2022-08-22T03:39:39.357Z,16.83
2022-08-22T03:42:22.250Z,16.81
2022-08-22T03:45:15.399Z,16.82
2022-08-22T03:48:16.393Z,16.80
2022-08-22T03:51:12.107Z,16.80
2022-08-22T03:54:12.499Z,16.77
2022-08-22T03:57:00.490Z,16.80
2022-08-22T04:00:01.407Z,16.80
2022-08-22T04:03:06.492Z,16.81
2022-08-22T04:06:00.539Z,16.81
2022-08-22T04:08:58.377Z,16.77
2022-08-22T04:11:56.335Z,16.76
2022-08-22T04:14:58.135Z,16.76
2022-08-22T04:18:02.248Z,16.75
2022-08-22T04:20:59.808Z,16.73
2022-08-22T04:23:33.521Z,16.70
2022-08-22T04:26:12.931Z,16.65
2022-08-22T04:28:45.607Z,16.68
2022-08-22T04:31:15.204Z,16.73
2022-08-22T04:33:50.977Z,16.75
2022-08-22T04:36:23.325Z,16.78
2022-08-22T04:39:00.082Z,16.78
2022-08-22T04:41:48.807Z,16.80
2022-08-22T04:44:21.492Z,16.77
2022-08-22T04:47:02.296Z,16.76
2022-08-22T04:49:43.661Z,16.76
2022-08-22T04:52:24.407Z,16.74
2022-08-22T04:55:24.562Z,16.74
2022-08-22T04:58:02.322Z,16.74
2022-08-22T05:01:03.543Z,16.74
2022-08-22T05:03:33.436Z,16.71
2022-08-22T05:06:03.384Z,16.73
2022-08-22T05:08:36.156Z,16.74
2022-08-22T05:11:09.470Z,16.74
2022-08-22T05:13:57.837Z,16.77
2022-08-22T05:16:37.688Z,16.78
2022-08-22T05:19:22.997Z,16.81
2022-08-22T05:21:54.421Z,16.82
2022-08-22T05:24:27.984Z,16.82
2022-08-22T05:26:59.705Z,16.82
2022-08-22T05:29:30.329Z,16.88
2022-08-22T05:32:03.688Z,16.90
2022-08-22T05:34:38.940Z,16.92
2022-08-22T05:37:08.339Z,16.94
2022-08-22T05:39:38.338Z,16.96
2022-08-22T05:42:05.459Z,16.97
2022-08-22T05:44:38.089Z,16.98
2022-08-22T05:47:35.212Z,16.99
2022-08-22T05:50:20.109Z,17.00
2022-08-22T05:53:02.860Z,17.00
2022-08-22T05:56:10.872Z,17.03
2022-08-22T05:58:43.373Z,17.05
2022-08-22T06:01:32.006Z,17.05
2022-08-22T06:04:07.074Z,17.06
2022-08-22T06:06:57.425Z,17.14
2022-08-22T06:09:46.662Z,17.19
2022-08-22T06:12:22.775Z,17.23
2022-08-22T06:15:11.874Z,17.28
2022-08-22T06:17:47.115Z,17.33
2022-08-22T06:20:19.727Z,17.39
2022-08-22T06:22:54.079Z,17.44
2022-08-22T06:25:26.479Z,17.44
2022-08-22T06:27:54.403Z,17.50
2022-08-22T06:30:21.752Z,17.59
2022-08-22T06:32:59.095Z,17.69
2022-08-22T06:36:13.371Z,17.80
2022-08-22T06:39:17.054Z,17.96
2022-08-22T06:41:52.421Z,18.10
2022-08-22T06:44:24.090Z,18.16
2022-08-22T06:46:54.582Z,18.30
2022-08-22T06:49:23.767Z,18.47
2022-08-22T06:51:51.156Z,18.60
2022-08-22T06:54:25.042Z,18.67
2022-08-22T06:56:53.956Z,18.69
2022-08-22T06:59:27.413Z,18.77
2022-08-22T07:02:01.396Z,18.85
2022-08-22T07:04:28.865Z,18.86
2022-08-22T07:06:58.877Z,18.88
2022-08-22T07:09:32.481Z,18.86
2022-08-22T07:12:02.849Z,18.88
2022-08-22T07:14:40.153Z,18.88
2022-08-22T07:17:09.452Z,18.96
2022-08-22T07:19:40.253Z,19.13
2022-08-22T07:22:21.779Z,19.20
2022-08-22T07:24:52.743Z,19.38
2022-08-22T07:27:37.592Z,19.62
2022-08-22T07:30:13.992Z,20.06
2022-08-22T07:32:51.781Z,20.24
2022-08-22T07:35:23.362Z,20.50
2022-08-22T07:37:56.365Z,20.96
2022-08-22T07:40:37.965Z,21.95
2022-08-22T07:43:04.383Z,23.14
2022-08-22T07:45:52.799Z,23.94
2022-08-22T07:48:26.868Z,24.54
2022-08-22T07:50:59.033Z,25.04
2022-08-22T07:53:34.242Z,26.23
2022-08-22T07:56:02.971Z,27.54
2022-08-22T07:58:33.845Z,28.08
2022-08-22T08:01:01.251Z,28.35
2022-08-22T08:03:30.427Z,28.86
2022-08-22T08:05:57.533Z,29.14
2022-08-22T08:08:38.307Z,29.48
2022-08-22T08:11:08.182Z,29.92
2022-08-22T08:13:40.440Z,30.05
2022-08-22T08:16:15.873Z,29.89
2022-08-22T08:18:44.647Z,29.98
2022-08-22T08:21:36.911Z,30.19
2022-08-22T08:24:07.445Z,30.35
2022-08-22T08:26:39.937Z,30.45
2022-08-22T08:29:07.288Z,30.32
2022-08-22T08:31:43.075Z,30.43
2022-08-22T08:34:18.568Z,30.49
2022-08-22T08:36:54.059Z,30.33
2022-08-22T08:39:23.456Z,30.53
2022-08-22T08:41:49.997Z,30.47
2022-08-22T08:44:40.872Z,29.95
2022-08-22T08:47:34.484Z,29.69
2022-08-22T08:50:22.622Z,29.96
2022-08-22T08:53:12.043Z,30.63
2022-08-22T08:56:06.239Z,30.69
2022-08-22T08:58:47.583Z,30.15
2022-08-22T09:01:27.575Z,29.68
2022-08-22T09:04:15.069Z,29.75
2022-08-22T09:07:01.304Z,30.12
2022-08-22T09:09:57.460Z,30.09
2022-08-22T09:12:38.259Z,30.30
2022-08-22T09:16:05.036Z,30.28
2022-08-22T09:19:10.446Z,30.30
2022-08-22T09:22:02.043Z,30.50
2022-08-22T09:24:48.814Z,30.04
2022-08-22T09:27:39.044Z,30.52
2022-08-22T09:30:12.440Z,30.82
2022-08-22T09:32:44.582Z,30.96
2022-08-22T09:35:44.513Z,31.32
2022-08-22T09:38:36.454Z,31.28
2022-08-22T09:41:41.114Z,31.33
2022-08-22T09:44:16.283Z,31.52
2022-08-22T09:47:05.842Z,31.59
2022-08-22T09:50:17.022Z,31.77
2022-08-22T09:53:00.395Z,31.64
2022-08-22T09:55:43.128Z,31.96
2022-08-22T09:58:31.428Z,31.26
2022-08-22T10:01:02.518Z,30.43
2022-08-22T10:03:54.702Z,29.70
2022-08-22T10:06:27.712Z,29.83
2022-08-22T10:09:10.593Z,29.88
2022-08-22T10:11:54.996Z,29.52
2022-08-22T10:14:28.511Z,29.74
2022-08-22T10:17:21.880Z,30.12
2022-08-22T10:19:58.807Z,30.48
2022-08-22T10:23:10.735Z,30.01
2022-08-22T10:25:51.312Z,29.60
2022-08-22T10:28:31.429Z,29.85
2022-08-22T10:31:18.910Z,29.84
2022-08-22T10:34:07.996Z,29.99
2022-08-22T10:37:12.070Z,30.03
2022-08-22T10:39:47.583Z,30.09
2022-08-22T10:42:30.142Z,29.95
2022-08-22T10:45:04.320Z,29.67
2022-08-22T10:47:39.212Z,29.55
2022-08-22T10:50:31.181Z,29.67
2022-08-22T10:53:29.601Z,29.74
2022-08-22T10:56:23.464Z,30.14
2022-08-22T10:59:07.944Z,30.20
2022-08-22T11:01:47.036Z,29.93
2022-08-22T11:04:44.284Z,29.41
2022-08-22T11:07:13.324Z,29.30
2022-08-22T11:09:43.219Z,28.82
2022-08-22T11:12:42.639Z,28.67
2022-08-22T11:15:43.127Z,28.57
2022-08-22T11:18:36.617Z,27.87
2022-08-22T11:21:10.913Z,28.10
2022-08-22T11:23:45.079Z,28.28
2022-08-22T11:26:47.519Z,28.68
2022-08-22T11:29:38.616Z,28.22
2022-08-22T11:32:16.928Z,28.01
2022-08-22T11:34:47.803Z,27.76
2022-08-22T11:37:42.177Z,27.84
2022-08-22T11:40:35.580Z,28.36
2022-08-22T11:43:32.466Z,28.73
2022-08-22T11:46:13.843Z,28.63
2022-08-22T11:49:04.637Z,28.40
2022-08-22T11:51:53.063Z,28.90
2022-08-22T11:54:43.129Z,29.00
2022-08-22T11:57:25.867Z,29.22
2022-08-22T11:59:55.748Z,29.45
2022-08-22T12:02:47.693Z,29.26
2022-08-22T12:05:24.483Z,29.14
2022-08-22T12:08:03.741Z,28.79
2022-08-22T12:10:34.123Z,28.66
2022-08-22T12:13:13.363Z,28.35
2022-08-22T12:15:53.946Z,28.25
2022-08-22T12:18:44.987Z,28.27
2022-08-22T12:21:39.392Z,28.07
2022-08-22T12:24:40.869Z,27.91
2022-08-22T12:27:37.923Z,27.62
2022-08-22T12:30:18.211Z,28.32
2022-08-22T12:32:59.138Z,29.33
2022-08-22T12:35:30.318Z,30.06
2022-08-22T12:38:28.216Z,30.22
2022-08-22T12:41:08.601Z,29.84
2022-08-22T12:44:00.982Z,29.51
2022-08-22T12:47:02.013Z,29.41
2022-08-22T12:49:52.932Z,29.19
2022-08-22T12:52:52.303Z,29.12
2022-08-22T12:55:33.680Z,29.20
2022-08-22T12:58:23.307Z,29.16
2022-08-22T13:00:50.751Z,28.84
2022-08-22T13:03:32.525Z,28.26
2022-08-22T13:06:05.056Z,28.11
2022-08-22T13:08:44.491Z,28.08
2022-08-22T13:11:22.740Z,28.47
2022-08-22T13:13:56.060Z,28.96
2022-08-22T13:16:25.371Z,29.46
2022-08-22T13:19:08.028Z,29.44
2022-08-22T13:21:46.697Z,29.22
2022-08-22T13:24:51.861Z,29.23
2022-08-22T13:27:29.824Z,28.93
2022-08-22T13:30:00.862Z,28.79
2022-08-22T13:32:44.376Z,28.78
2022-08-22T13:35:23.928Z,28.63
2022-08-22T13:37:57.264Z,29.19
2022-08-22T13:40:34.032Z,29.17
2022-08-22T13:43:11.140Z,29.41
2022-08-22T13:45:40.541Z,29.66
2022-08-22T13:48:13.775Z,29.34
2022-08-22T13:51:04.627Z,29.11
2022-08-22T13:53:36.233Z,29.31
2022-08-22T13:56:15.659Z,29.13
2022-08-22T13:58:50.440Z,29.31
2022-08-22T14:01:31.088Z,29.29
2022-08-22T14:04:28.297Z,29.17
2022-08-22T14:07:23.799Z,29.00
2022-08-22T14:10:15.010Z,29.40
2022-08-22T14:13:11.178Z,29.35
2022-08-22T14:15:45.717Z,29.09
2022-08-22T14:18:16.020Z,29.23
2022-08-22T14:20:47.585Z,29.35
2022-08-22T14:23:29.477Z,29.40
2022-08-22T14:25:57.272Z,29.29
2022-08-22T14:28:34.060Z,29.35
2022-08-22T14:31:07.421Z,29.24
2022-08-22T14:33:39.784Z,29.16
2022-08-22T14:36:19.745Z,29.13
2022-08-22T14:39:22.287Z,28.93
2022-08-22T14:41:58.623Z,28.79
2022-08-22T14:44:43.901Z,29.19
2022-08-22T14:47:55.449Z,29.51
2022-08-22T14:50:53.003Z,29.07
2022-08-22T14:53:19.734Z,28.81
2022-08-22T14:56:06.496Z,29.09
2022-08-22T14:58:37.772Z,29.03
2022-08-22T15:01:11.569Z,28.84
2022-08-22T15:03:40.885Z,28.85
2022-08-22T15:06:17.043Z,28.81
2022-08-22T15:08:50.685Z,28.73
2022-08-22T15:11:17.008Z,28.58
2022-08-22T15:13:53.005Z,28.81
2022-08-22T15:16:24.863Z,28.82
2022-08-22T15:18:51.955Z,28.94
2022-08-22T15:21:24.352Z,28.78
2022-08-22T15:23:54.394Z,28.55
2022-08-22T15:26:41.275Z,28.67
2022-08-22T15:29:17.455Z,28.88
2022-08-22T15:31:46.837Z,28.75
2022-08-22T15:34:21.648Z,28.82
2022-08-22T15:37:09.935Z,28.70
2022-08-22T15:40:12.659Z,28.62
2022-08-22T15:42:45.395Z,28.47
2022-08-22T15:45:34.038Z,28.34
2022-08-22T15:48:04.505Z,28.32
2022-08-22T15:51:02.754Z,28.31
2022-08-22T15:53:44.464Z,28.20
2022-08-22T15:56:10.786Z,28.36
2022-08-22T15:58:48.124Z,28.33
2022-08-22T16:01:20.464Z,28.14
2022-08-22T16:03:56.779Z,28.03
2022-08-22T16:06:42.396Z,28.07
2022-08-22T16:09:29.130Z,27.98
2022-08-22T16:11:57.285Z,27.92
2022-08-22T16:14:35.981Z,28.10
2022-08-22T16:17:25.464Z,28.40
2022-08-22T16:20:19.499Z,28.23
2022-08-22T16:22:58.884Z,28.11
2022-08-22T16:25:44.260Z,28.17
2022-08-22T16:28:56.786Z,28.37
2022-08-22T16:31:29.295Z,28.20
2022-08-22T16:34:17.360Z,28.10
2022-08-22T16:37:04.029Z,27.89
2022-08-22T16:40:06.747Z,27.86
2022-08-22T16:42:36.266Z,27.85
2022-08-22T16:45:02.781Z,27.61
2022-08-22T16:47:40.661Z,27.48
2022-08-22T16:50:25.402Z,27.46
2022-08-22T16:52:59.644Z,27.50
2022-08-22T16:55:29.208Z,27.49
2022-08-22T16:58:13.674Z,27.39
2022-08-22T17:00:46.108Z,27.38
2022-08-22T17:03:49.685Z,27.29
2022-08-22T17:06:33.756Z,27.28
2022-08-22T17:09:40.164Z,27.21
2022-08-22T17:12:24.608Z,27.18
2022-08-22T17:15:06.796Z,27.12
2022-08-22T17:17:59.585Z,27.06
2022-08-22T17:21:01.541Z,27.04
2022-08-22T17:23:35.400Z,26.94
2022-08-22T17:26:04.542Z,26.88
2022-08-22T17:28:56.016Z,26.82
2022-08-22T17:31:54.095Z,26.88
2022-08-22T17:34:32.355Z,26.97
2022-08-22T17:37:23.251Z,26.81
2022-08-22T17:40:19.211Z,26.69
2022-08-22T17:43:01.622Z,26.67
2022-08-22T17:45:43.137Z,26.68
2022-08-22T17:48:18.543Z,26.60
2022-08-22T17:50:55.996Z,26.53
2022-08-22T17:53:28.909Z,26.49
2022-08-22T17:56:06.643Z,26.43
2022-08-22T17:58:44.124Z,26.37
2022-08-22T18:01:37.739Z,26.19
2022-08-22T18:04:08.380Z,26.01
2022-08-22T18:06:43.935Z,25.87
2022-08-22T18:09:26.278Z,25.75
2022-08-22T18:12:01.058Z,25.64
2022-08-22T18:14:45.032Z,25.43
2022-08-22T18:17:33.020Z,25.28
2022-08-22T18:20:10.236Z,25.11
2022-08-22T18:22:39.765Z,24.99
2022-08-22T18:25:18.102Z,24.90
2022-08-22T18:27:53.710Z,24.82
2022-08-22T18:30:28.432Z,24.69
2022-08-22T18:33:05.944Z,24.66
2022-08-22T18:35:53.884Z,24.57
2022-08-22T18:38:25.084Z,24.48
2022-08-22T18:41:08.885Z,24.37
2022-08-22T18:43:41.604Z,24.24
2022-08-22T18:46:40.851Z,24.11
2022-08-22T18:49:15.434Z,23.97
2022-08-22T18:51:43.529Z,23.93
2022-08-22T18:54:11.396Z,23.83
2022-08-22T18:56:47.900Z,23.75
2022-08-22T18:59:46.858Z,23.65
2022-08-22T19:02:16.267Z,23.52
2022-08-22T19:04:54.652Z,23.43
2022-08-22T19:07:30.106Z,23.38
2022-08-22T19:10:52.809Z,23.31
2022-08-22T19:14:05.606Z,23.22
2022-08-22T19:16:59.609Z,23.12
2022-08-22T19:20:15.647Z,22.99
2022-08-22T19:22:43.115Z,22.83
2022-08-22T19:25:18.460Z,22.73
2022-08-22T19:28:08.721Z,22.67
2022-08-22T19:31:16.733Z,22.60
2022-08-22T19:33:49.743Z,22.51
2022-08-22T19:36:31.199Z,22.43
2022-08-22T19:39:10.448Z,22.30
2022-08-22T19:41:44.210Z,22.23
2022-08-22T19:44:32.865Z,22.14
2022-08-22T19:47:20.774Z,22.03
2022-08-22T19:49:50.086Z,21.93
2022-08-22T19:52:16.575Z,21.83
2022-08-22T19:54:51.809Z,21.72
2022-08-22T19:57:55.342Z,21.60
2022-08-22T20:00:26.613Z,21.52
2022-08-22T20:03:13.443Z,21.50
2022-08-22T20:06:22.137Z,21.42
2022-08-22T20:09:27.734Z,21.30
2022-08-22T20:12:24.352Z,21.22
2022-08-22T20:14:51.663Z,21.13
2022-08-22T20:17:24.053Z,21.10
2022-08-22T20:20:18.563Z,21.04
2022-08-22T20:23:05.103Z,20.97
2022-08-22T20:25:53.020Z,20.91
2022-08-22T20:28:31.899Z,20.83
2022-08-22T20:31:02.341Z,20.79
2022-08-22T20:33:37.037Z,20.70
2022-08-22T20:36:13.801Z,20.64
2022-08-22T20:38:58.652Z,20.59
2022-08-22T20:41:40.963Z,20.55
2022-08-22T20:44:22.680Z,20.46
2022-08-22T20:46:53.490Z,20.41
2022-08-22T20:49:41.629Z,20.36
2022-08-22T20:52:11.350Z,20.32
2022-08-22T20:54:41.005Z,20.29
2022-08-22T20:57:19.308Z,20.20
2022-08-22T20:59:55.840Z,20.12
2022-08-22T21:02:32.228Z,20.09
2022-08-22T21:05:18.659Z,20.07
2022-08-22T21:07:48.105Z,20.08
2022-08-22T21:10:42.965Z,20.07
2022-08-22T21:13:17.367Z,20.05
2022-08-22T21:15:47.532Z,20.02
2022-08-22T21:18:30.873Z,20.03
2022-08-22T21:21:08.360Z,20.00
2022-08-22T21:23:47.645Z,20.00
2022-08-22T21:26:24.600Z,19.99
2022-08-22T21:28:57.266Z,19.94
2022-08-22T21:31:27.173Z,19.91
2022-08-22T21:33:55.631Z,19.86
2022-08-22T21:36:27.420Z,19.82
2022-08-22T21:38:57.772Z,19.80
2022-08-22T21:41:32.022Z,19.77
2022-08-22T21:44:34.452Z,19.68
2022-08-22T21:47:31.162Z,19.69
2022-08-22T21:50:09.737Z,19.69
2022-08-22T21:52:39.086Z,19.71
2022-08-22T21:55:26.236Z,19.72
2022-08-22T21:58:04.412Z,19.71
2022-08-22T22:00:57.364Z,19.67
2022-08-22T22:03:36.016Z,19.62
2022-08-22T22:06:05.978Z,19.60
2022-08-22T22:08:33.684Z,19.57
2022-08-22T22:11:06.164Z,19.56
2022-08-22T22:13:35.115Z,19.54
2022-08-22T22:16:01.640Z,19.55
2022-08-22T22:18:32.829Z,19.53
2022-08-22T22:21:00.418Z,19.51
2022-08-22T22:23:27.923Z,19.50
2022-08-22T22:25:57.355Z,19.46
2022-08-22T22:28:29.692Z,19.44
2022-08-22T22:30:56.572Z,19.39
2022-08-22T22:33:28.432Z,19.32
2022-08-22T22:35:57.241Z,19.26
2022-08-22T22:38:24.492Z,19.20
2022-08-22T22:40:51.962Z,19.19
2022-08-22T22:43:18.615Z,19.17
2022-08-22T22:45:45.193Z,19.14
2022-08-22T22:48:12.032Z,19.10
2022-08-22T22:50:44.748Z,19.07
2022-08-22T22:53:11.986Z,19.03
2022-08-22T22:56:00.412Z,19.04
2022-08-22T22:58:28.545Z,19.10
2022-08-22T23:00:55.847Z,19.09
2022-08-22T23:03:23.026Z,19.09
2022-08-22T23:05:49.393Z,19.11
2022-08-22T23:08:15.803Z,19.13
2022-08-22T23:10:42.233Z,19.10
2022-08-22T23:13:09.308Z,19.06
2022-08-22T23:15:37.347Z,19.03
2022-08-22T23:18:03.887Z,19.06
2022-08-22T23:20:30.419Z,19.01
2022-08-22T23:22:56.983Z,18.93
2022-08-22T23:25:23.388Z,18.90
2022-08-22T23:27:52.196Z,18.90
2022-08-22T23:30:19.481Z,18.94
2022-08-22T23:32:45.856Z,18.93
2022-08-22T23:35:12.268Z,18.93
2022-08-22T23:37:38.683Z,18.88
2022-08-22T23:40:08.021Z,18.84
2022-08-22T23:42:34.894Z,18.84
2022-08-22T23:45:01.297Z,18.83
2022-08-22T23:47:27.880Z,18.80
2022-08-22T23:49:54.498Z,18.81
2022-08-22T23:52:20.881Z,18.77
2022-08-22T23:54:47.892Z,18.76
2022-08-22T23:57:21.050Z,18.71
2022-08-22T23:59:58.393Z,18.61
